Terminal Aerodrome Forecast
Issued by NWS

Current Version | Previous Version | Text Only | Print | Product List | Glossary On
Versions: 1 2 3 4 5 6 7 8 9 10 11 12 13
000
FTUS45 KABQ 012340
TAFTCC
TAF
KTCC 012340Z 0200/0224 22009G17KT P6SM VCSH BKN110
      TEMPO 0200/0202 VRB17G28KT -TSRA OVC080CB
     FM020300 20010KT P6SM BKN120
     FM021600 22012G20KT P6SM SCT100=

USA.gov is the U.S. government's official web portal to all federal, state and local government web resources and services.